Time;durP1;ratioP1;P1;durP2;ratioP2;P2;SDS_P1;SDS_P2;PMS_P1;PMS_P2;Temp;Humidity;BMP_temperature;BMP_pressure;BME280_temperature;BME280_humidity;BME280_pressure;Samples;Min_cycle;Max_cycle;Signal;HPM_P1;HPM_P2
2022/01/26 00:06:57;;;;;;;;;48.67;35.00;;;;;;;;5057373;28;11486;-78
2022/01/26 00:09:26;;;;;;;;;41.00;32.67;;;;;;;;5064702;28;11601;-78
2022/01/26 00:11:56;;;;;;;;;33.33;28.33;;;;;;;;5062847;28;11534;-78
2022/01/26 00:14:23;;;;;;;;;48.33;33.00;;;;;;;;5044863;28;11548;-78
2022/01/26 00:16:51;;;;;;;;;42.00;35.00;;;;;;;;5069790;28;8963;-78
2022/01/26 00:19:23;;;;;;;;;53.33;33.67;;;;;;;;5063639;28;11522;-78
2022/01/26 00:21:52;;;;;;;;;34.00;30.00;;;;;;;;5063734;28;8846;-78
2022/01/26 00:29:48;;;;;;;;;35.33;31.33;;;;;;;;5054785;28;11523;-78
2022/01/26 00:40:35;;;;;;;;;37.67;33.67;;;;;;;;5058001;28;11482;-78
2022/01/26 00:43:13;;;;;;;;;40.00;32.33;;;;;;;;5062919;28;11533;-79
2022/01/26 00:45:40;;;;;;;;;38.00;32.00;;;;;;;;5062590;28;11525;-77
2022/01/26 00:48:09;;;;;;;;;28.00;28.00;;;;;;;;5063128;28;11606;-77
2022/01/26 00:50:39;;;;;;;;;32.33;29.00;;;;;;;;5062403;28;11571;-77
2022/01/26 00:53:07;;;;;;;;;36.33;29.67;;;;;;;;5063847;28;11498;-76
2022/01/26 00:55:35;;;;;;;;;41.00;33.67;;;;;;;;5061963;28;11632;-76
2022/01/26 00:58:04;;;;;;;;;58.67;48.00;;;;;;;;5060080;28;11514;-76
2022/01/26 01:00:32;;;;;;;;;62.00;51.33;;;;;;;;5059327;28;8776;-77
2022/01/26 01:03:01;;;;;;;;;60.00;46.33;;;;;;;;5061927;28;9469;-77
2022/01/26 01:05:34;;;;;;;;;39.67;34.67;;;;;;;;5062880;28;8873;-77
2022/01/26 01:08:05;;;;;;;;;47.67;42.00;;;;;;;;5061858;28;11568;-77
2022/01/26 01:10:32;;;;;;;;;53.67;45.67;;;;;;;;5062859;28;11513;-77
2022/01/26 01:13:01;;;;;;;;;55.67;46.00;;;;;;;;5062231;28;9645;-78
2022/01/26 01:15:30;;;;;;;;;53.67;45.00;;;;;;;;5053908;28;9600;-77
2022/01/26 01:18:07;;;;;;;;;61.33;46.67;;;;;;;;5062802;28;8943;-77
2022/01/26 01:20:44;;;;;;;;;55.33;45.67;;;;;;;;5061705;28;11601;-78
2022/01/26 01:23:33;;;;;;;;;60.00;49.33;;;;;;;;5062860;28;8882;-77
2022/01/26 01:26:20;;;;;;;;;50.33;41.00;;;;;;;;5039747;28;8894;-77
2022/01/26 01:29:07;;;;;;;;;58.67;42.00;;;;;;;;5046846;28;11501;-77
2022/01/26 01:31:44;;;;;;;;;48.33;37.67;;;;;;;;5061616;28;8827;-77
2022/01/26 01:34:13;;;;;;;;;29.00;27.67;;;;;;;;5055870;28;8869;-78
2022/01/26 01:36:43;;;;;;;;;49.67;45.00;;;;;;;;5062369;28;11620;-75
2022/01/26 01:39:10;;;;;;;;;42.33;36.33;;;;;;;;5063052;28;8854;-77
2022/01/26 01:41:40;;;;;;;;;58.67;45.33;;;;;;;;5041615;28;11576;-78
2022/01/26 01:44:08;;;;;;;;;47.00;42.00;;;;;;;;5062434;28;8874;-77
2022/01/26 01:46:40;;;;;;;;;47.67;42.67;;;;;;;;5059659;28;8866;-78
2022/01/26 01:49:08;;;;;;;;;54.00;45.00;;;;;;;;5059909;28;11513;-77
2022/01/26 01:51:40;;;;;;;;;39.67;35.67;;;;;;;;5061216;28;8861;-78
2022/01/26 01:54:13;;;;;;;;;54.33;45.00;;;;;;;;5063048;28;8904;-77
2022/01/26 01:56:42;;;;;;;;;63.67;52.67;;;;;;;;5060770;28;10344;-77
2022/01/26 01:59:10;;;;;;;;;69.33;59.00;;;;;;;;5062348;28;8853;-78
2022/01/26 02:01:39;;;;;;;;;56.00;46.33;;;;;;;;5061649;28;8836;-78
2022/01/26 02:04:07;;;;;;;;;59.67;46.00;;;;;;;;5060570;28;8854;-78
2022/01/26 02:06:35;;;;;;;;;57.33;45.33;;;;;;;;5060270;28;8854;-78
2022/01/26 02:09:03;;;;;;;;;58.67;48.67;;;;;;;;5055087;28;9447;-77
2022/01/26 02:11:30;;;;;;;;;54.00;46.33;;;;;;;;5060962;28;8858;-76
2022/01/26 02:14:02;;;;;;;;;59.00;46.00;;;;;;;;5060441;28;8964;-78
2022/01/26 02:16:36;;;;;;;;;53.33;46.67;;;;;;;;5060386;28;8897;-77
2022/01/26 02:49:12;;;;;;;;;49.33;42.00;;;;;;;;5043312;28;8838;-77
2022/01/26 02:49:47;;;;;;;;;47.33;44.00;;;;;;;;5066517;28;8865;-77
2022/01/26 02:52:33;;;;;;;;;36.67;36.00;;;;;;;;5048862;28;9651;-77
2022/01/26 02:58:20;;;;;;;;;62.67;48.33;;;;;;;;5049734;28;8854;-77
2022/01/26 03:00:58;;;;;;;;;55.00;47.00;;;;;;;;5062307;28;8831;-77
2022/01/26 03:03:29;;;;;;;;;53.67;44.00;;;;;;;;5065474;28;8838;-77
2022/01/26 03:06:01;;;;;;;;;47.67;40.33;;;;;;;;5064171;28;8849;-77
2022/01/26 03:08:33;;;;;;;;;46.67;40.67;;;;;;;;5047533;28;8893;-77
2022/01/26 03:11:07;;;;;;;;;45.67;39.67;;;;;;;;5065985;28;8834;-77
2022/01/26 03:13:37;;;;;;;;;53.67;42.33;;;;;;;;5054927;28;8864;-76
2022/01/26 03:16:10;;;;;;;;;50.67;41.00;;;;;;;;5065157;28;8912;-76
2022/01/26 03:21:31;;;;;;;;;55.00;43.67;;;;;;;;5060819;28;8850;-77
2022/01/26 03:34:59;;;;;;;;;38.33;37.67;;;;;;;;5059316;28;9713;-77
2022/01/26 03:37:31;;;;;;;;;48.33;41.33;;;;;;;;5065066;28;8969;-77
2022/01/26 03:39:59;;;;;;;;;49.00;42.00;;;;;;;;5063862;28;9705;-78
2022/01/26 03:42:27;;;;;;;;;49.33;41.33;;;;;;;;5065080;28;8885;-77
2022/01/26 03:44:55;;;;;;;;;53.67;42.00;;;;;;;;5046164;28;8858;-77
2022/01/26 03:47:22;;;;;;;;;60.33;53.00;;;;;;;;5044582;28;9623;-77
2022/01/26 03:49:49;;;;;;;;;54.67;46.33;;;;;;;;5064231;28;8842;-77
2022/01/26 03:52:16;;;;;;;;;43.67;41.00;;;;;;;;5063287;28;8865;-77
2022/01/26 03:54:46;;;;;;;;;50.00;46.00;;;;;;;;5063793;28;8846;-76
2022/01/26 03:57:13;;;;;;;;;47.00;43.33;;;;;;;;5063288;28;8975;-76
2022/01/26 03:59:42;;;;;;;;;53.67;46.33;;;;;;;;5064960;28;8854;-76
2022/01/26 04:02:09;;;;;;;;;35.67;33.33;;;;;;;;5060911;28;8803;-76
2022/01/26 04:04:44;;;;;;;;;54.00;46.00;;;;;;;;5061967;28;8889;-76
2022/01/26 04:07:11;;;;;;;;;47.00;41.33;;;;;;;;5064897;28;8838;-77
2022/01/26 04:09:38;;;;;;;;;51.67;41.33;;;;;;;;5064025;28;8858;-77
2022/01/26 04:12:06;;;;;;;;;55.33;47.67;;;;;;;;5064126;28;8876;-76
2022/01/26 04:14:34;;;;;;;;;49.00;42.00;;;;;;;;5063153;28;9008;-77
2022/01/26 04:17:04;;;;;;;;;62.00;51.00;;;;;;;;5062901;28;8973;-76
2022/01/26 04:19:34;;;;;;;;;47.00;42.00;;;;;;;;5061252;28;8888;-77
2022/01/26 04:22:13;;;;;;;;;42.33;39.33;;;;;;;;5045631;28;8885;-77
2022/01/26 04:24:45;;;;;;;;;46.33;39.00;;;;;;;;5062707;28;8850;-77
2022/01/26 04:27:20;;;;;;;;;47.33;40.67;;;;;;;;5062832;28;8983;-77
2022/01/26 04:29:51;;;;;;;;;38.33;28.67;;;;;;;;5044491;28;8858;-77
2022/01/26 04:32:20;;;;;;;;;51.67;44.67;;;;;;;;5061420;28;9695;-77
2022/01/26 04:34:49;;;;;;;;;60.67;44.67;;;;;;;;5060685;28;8863;-77
2022/01/26 04:37:26;;;;;;;;;61.67;44.33;;;;;;;;5062631;28;8911;-77
2022/01/26 04:39:58;;;;;;;;;53.67;45.33;;;;;;;;5061172;28;8895;-77
2022/01/26 04:42:33;;;;;;;;;59.00;44.00;;;;;;;;5064055;28;8846;-76
2022/01/26 04:45:03;;;;;;;;;18.33;18.33;;;;;;;;5045193;28;8881;-76
2022/01/26 04:47:32;;;;;;;;;51.33;43.00;;;;;;;;5063750;28;8905;-77
2022/01/26 04:49:59;;;;;;;;;57.00;44.00;;;;;;;;5044715;28;9013;-77
2022/01/26 04:52:27;;;;;;;;;53.00;46.00;;;;;;;;5065094;28;8945;-77
2022/01/26 04:54:54;;;;;;;;;57.33;43.33;;;;;;;;5062020;28;9584;-77
2022/01/26 04:57:21;;;;;;;;;46.33;41.00;;;;;;;;5044258;28;8903;-76
2022/01/26 04:59:49;;;;;;;;;45.67;37.33;;;;;;;;5046771;28;8870;-77
2022/01/26 05:02:17;;;;;;;;;57.67;48.33;;;;;;;;5055503;28;9620;-76
2022/01/26 05:04:45;;;;;;;;;62.00;49.33;;;;;;;;5057595;28;8866;-75
2022/01/26 05:07:13;;;;;;;;;64.33;50.67;;;;;;;;5064167;28;8874;-76
2022/01/26 05:09:41;;;;;;;;;62.67;48.33;;;;;;;;5063515;28;8854;-76
2022/01/26 05:12:10;;;;;;;;;56.00;45.33;;;;;;;;5055377;28;8963;-77
2022/01/26 05:14:40;;;;;;;;;56.33;46.67;;;;;;;;5059854;28;8896;-74
2022/01/26 05:17:07;;;;;;;;;57.33;48.67;;;;;;;;5063835;28;8881;-75
2022/01/26 05:19:34;;;;;;;;;52.33;47.33;;;;;;;;5059492;28;8912;-76
2022/01/26 05:22:03;;;;;;;;;59.33;47.67;;;;;;;;5062868;28;8849;-76
2022/01/26 05:24:31;;;;;;;;;53.33;46.00;;;;;;;;5062186;28;8861;-76
2022/01/26 05:26:58;;;;;;;;;47.67;42.67;;;;;;;;5063720;28;8884;-75
2022/01/26 05:29:25;;;;;;;;;47.00;42.00;;;;;;;;5058467;28;8850;-76
2022/01/26 05:31:53;;;;;;;;;47.33;40.67;;;;;;;;5060732;28;8832;-76
2022/01/26 05:34:20;;;;;;;;;55.33;46.00;;;;;;;;5063159;28;8872;-75
2022/01/26 05:36:47;;;;;;;;;61.67;46.00;;;;;;;;5061704;28;8913;-76
2022/01/26 05:39:16;;;;;;;;;51.33;45.00;;;;;;;;5063739;28;8927;-76
2022/01/26 05:41:43;;;;;;;;;59.67;46.00;;;;;;;;5057515;28;8849;-76
2022/01/26 05:44:11;;;;;;;;;57.67;47.33;;;;;;;;5046126;28;8870;-76
2022/01/26 05:46:42;;;;;;;;;60.00;44.67;;;;;;;;5045486;28;8856;-76
2022/01/26 05:49:10;;;;;;;;;60.67;49.67;;;;;;;;5063175;28;8869;-76
2022/01/26 05:51:38;;;;;;;;;66.33;52.33;;;;;;;;5062653;28;8854;-76
2022/01/26 05:54:07;;;;;;;;;56.00;46.33;;;;;;;;5044186;28;8988;-76
2022/01/26 05:56:36;;;;;;;;;56.33;48.67;;;;;;;;5060187;28;9623;-76
2022/01/26 05:59:04;;;;;;;;;62.33;48.00;;;;;;;;5057937;28;9725;-80
2022/01/26 06:01:31;;;;;;;;;52.00;44.33;;;;;;;;5019717;28;8817;-81
2022/01/26 06:03:59;;;;;;;;;52.67;42.00;;;;;;;;5055556;28;8852;-82
2022/01/26 06:06:26;;;;;;;;;56.67;46.33;;;;;;;;5061895;28;8865;-80
2022/01/26 06:08:53;;;;;;;;;50.00;43.00;;;;;;;;5057730;28;8858;-79
2022/01/26 06:11:20;;;;;;;;;48.33;44.33;;;;;;;;5056495;28;8842;-80
2022/01/26 06:13:49;;;;;;;;;42.00;34.67;;;;;;;;5061112;28;8873;-81
2022/01/26 06:16:16;;;;;;;;;51.67;46.00;;;;;;;;5059960;28;8984;-82
2022/01/26 06:18:44;;;;;;;;;62.33;49.33;;;;;;;;5067702;28;8853;-81
2022/01/26 06:21:12;;;;;;;;;52.67;43.00;;;;;;;;5062597;28;8889;-81
2022/01/26 06:23:39;;;;;;;;;44.33;40.33;;;;;;;;5063478;28;8884;-81
2022/01/26 06:26:07;;;;;;;;;53.00;46.67;;;;;;;;5044244;28;8857;-85
2022/01/26 06:28:34;;;;;;;;;61.67;45.33;;;;;;;;5063351;28;8893;-81
2022/01/26 06:31:09;;;;;;;;;55.00;46.33;;;;;;;;5062562;28;8790;-82
2022/01/26 06:33:39;;;;;;;;;41.67;41.67;;;;;;;;5064757;28;8881;-81
2022/01/26 06:36:06;;;;;;;;;46.67;40.00;;;;;;;;5067397;28;8853;-82
2022/01/26 06:38:34;;;;;;;;;54.00;44.00;;;;;;;;5065100;28;9665;-79
2022/01/26 06:41:01;;;;;;;;;40.33;40.33;;;;;;;;5049502;28;8862;-82
2022/01/26 06:43:31;;;;;;;;;55.33;45.00;;;;;;;;5066774;28;8938;-83
2022/01/26 06:46:02;;;;;;;;;64.00;50.00;;;;;;;;5066350;28;8961;-81
2022/01/26 06:51:15;;;;;;;;;58.00;46.00;;;;;;;;5048074;28;8942;-77
2022/01/26 06:53:42;;;;;;;;;51.33;46.00;;;;;;;;5065452;28;8865;-79
2022/01/26 06:56:09;;;;;;;;;55.67;47.00;;;;;;;;5057211;28;8864;-77
2022/01/26 06:58:36;;;;;;;;;55.00;46.33;;;;;;;;5060946;28;9685;-80
2022/01/26 07:01:04;;;;;;;;;59.33;47.67;;;;;;;;5063495;28;8792;-84
2022/01/26 07:03:32;;;;;;;;;49.00;44.33;;;;;;;;5065508;28;11625;-79
2022/01/26 07:22:52;;;;;;;;;56.00;47.67;;;;;;;;5034121;28;8975;-78
2022/01/26 07:25:20;;;;;;;;;60.33;45.33;;;;;;;;5042449;28;8919;-80
2022/01/26 07:27:47;;;;;;;;;60.33;50.33;;;;;;;;5040260;28;8890;-76
2022/01/26 07:30:15;;;;;;;;;66.00;53.00;;;;;;;;5038279;28;8877;-77
2022/01/26 07:32:42;;;;;;;;;57.00;47.00;;;;;;;;5053701;28;8886;-81
2022/01/26 07:35:10;;;;;;;;;68.33;51.33;;;;;;;;5032403;28;8896;-82
2022/01/26 07:37:37;;;;;;;;;66.67;50.67;;;;;;;;5036565;28;8907;-82
2022/01/26 07:40:09;;;;;;;;;62.00;48.67;;;;;;;;5038845;28;8892;-82
2022/01/26 07:42:36;;;;;;;;;61.33;51.00;;;;;;;;5042646;28;8865;-81
2022/01/26 07:45:06;;;;;;;;;67.00;52.67;;;;;;;;5035270;28;8865;-81
2022/01/26 07:47:34;;;;;;;;;64.33;49.00;;;;;;;;5034786;28;8902;-79
2022/01/26 07:50:02;;;;;;;;;63.00;50.33;;;;;;;;5039187;28;8957;-82
2022/01/26 07:52:34;;;;;;;;;65.33;53.67;;;;;;;;5041089;28;9042;-81
2022/01/26 07:55:02;;;;;;;;;51.00;45.33;;;;;;;;5040523;28;8899;-81
2022/01/26 07:57:30;;;;;;;;;56.33;47.33;;;;;;;;5032962;28;10191;-81
2022/01/26 07:59:58;;;;;;;;;70.67;54.33;;;;;;;;5041523;28;8865;-81
2022/01/26 08:02:25;;;;;;;;;70.67;54.00;;;;;;;;5059384;28;8815;-80
2022/01/26 08:04:53;;;;;;;;;57.67;46.33;;;;;;;;5053192;28;8860;-78
2022/01/26 08:07:20;;;;;;;;;70.33;52.33;;;;;;;;5066643;28;8896;-80
2022/01/26 08:09:47;;;;;;;;;65.33;51.67;;;;;;;;5057315;28;8861;-81
2022/01/26 08:12:16;;;;;;;;;55.00;47.00;;;;;;;;5056765;28;8859;-81
2022/01/26 08:14:45;;;;;;;;;66.67;53.67;;;;;;;;5051198;28;8906;-82
2022/01/26 08:17:14;;;;;;;;;45.00;39.67;;;;;;;;5052064;28;9011;-81
2022/01/26 08:19:42;;;;;;;;;67.33;54.33;;;;;;;;5054750;28;8850;-85
2022/01/26 08:22:16;;;;;;;;;68.33;50.67;;;;;;;;5063350;28;9005;-77
2022/01/26 08:24:44;;;;;;;;;65.67;53.00;;;;;;;;5061924;28;8853;-80
2022/01/26 08:27:14;;;;;;;;;60.33;47.67;;;;;;;;5065722;28;9709;-82
2022/01/26 08:29:44;;;;;;;;;58.00;44.33;;;;;;;;5056995;28;9013;-81
2022/01/26 08:32:13;;;;;;;;;66.00;53.00;;;;;;;;5058382;28;8845;-82
2022/01/26 08:34:41;;;;;;;;;75.33;60.00;;;;;;;;5056965;28;8947;-81
2022/01/26 08:37:09;;;;;;;;;62.67;51.33;;;;;;;;5059584;28;8859;-78
2022/01/26 08:39:37;;;;;;;;;68.33;52.33;;;;;;;;5064898;28;8884;-77
2022/01/26 08:42:06;;;;;;;;;65.67;53.67;;;;;;;;5067284;28;8869;-81
2022/01/26 08:44:34;;;;;;;;;71.67;57.33;;;;;;;;5059644;28;8858;-80
2022/01/26 08:47:01;;;;;;;;;63.67;54.00;;;;;;;;5062720;28;8874;-77
2022/01/26 08:49:31;;;;;;;;;65.00;51.67;;;;;;;;5061303;28;8875;-80
2022/01/26 08:51:58;;;;;;;;;40.67;37.00;;;;;;;;5066466;28;8863;-82
2022/01/26 08:54:26;;;;;;;;;62.67;49.00;;;;;;;;5060574;28;8904;-80
2022/01/26 08:56:54;;;;;;;;;53.00;48.33;;;;;;;;5062020;28;8858;-85
2022/01/26 08:59:23;;;;;;;;;62.33;53.33;;;;;;;;5057119;28;8864;-86
2022/01/26 09:01:50;;;;;;;;;60.00;45.67;;;;;;;;5083765;28;8810;-83
2022/01/26 09:04:18;;;;;;;;;71.33;57.33;;;;;;;;5065048;28;8885;-84
2022/01/26 09:06:52;;;;;;;;;63.67;46.67;;;;;;;;5063570;28;8990;-83
2022/01/26 09:09:21;;;;;;;;;61.33;48.33;;;;;;;;5076256;28;9648;-83
2022/01/26 09:11:49;;;;;;;;;67.67;53.67;;;;;;;;5061106;28;9001;-84
2022/01/26 09:14:20;;;;;;;;;71.33;53.00;;;;;;;;5073317;28;8886;-83
2022/01/26 09:16:51;;;;;;;;;53.33;48.67;;;;;;;;5064155;28;8840;-83
2022/01/26 09:19:27;;;;;;;;;64.00;49.67;;;;;;;;5059754;28;8983;-83
2022/01/26 09:21:57;;;;;;;;;71.00;53.00;;;;;;;;5057186;28;8870;-84
2022/01/26 09:24:26;;;;;;;;;63.67;53.00;;;;;;;;5062281;28;8950;-82
2022/01/26 09:26:54;;;;;;;;;66.67;53.67;;;;;;;;5069956;28;8897;-80
2022/01/26 09:29:21;;;;;;;;;70.00;55.00;;;;;;;;5055445;28;8890;-84
2022/01/26 09:31:48;;;;;;;;;64.00;49.67;;;;;;;;5060532;28;8811;-82
2022/01/26 09:34:17;;;;;;;;;62.67;50.00;;;;;;;;5063272;28;8860;-82
2022/01/26 09:36:44;;;;;;;;;70.33;54.67;;;;;;;;5064398;28;8878;-83
2022/01/26 09:39:13;;;;;;;;;60.67;48.33;;;;;;;;5073903;28;8864;-82
2022/01/26 09:41:41;;;;;;;;;63.67;53.67;;;;;;;;5062968;28;11589;-83
2022/01/26 09:44:09;;;;;;;;;54.33;45.33;;;;;;;;5068087;28;8948;-83
2022/01/26 09:46:38;;;;;;;;;65.33;50.33;;;;;;;;5062517;28;8863;-83
2022/01/26 09:49:05;;;;;;;;;66.67;55.00;;;;;;;;5064466;28;9644;-82
2022/01/26 09:51:39;;;;;;;;;74.00;58.33;;;;;;;;5063557;28;8856;-81
2022/01/26 09:54:11;;;;;;;;;78.33;54.67;;;;;;;;5058677;28;8959;-83
2022/01/26 09:56:41;;;;;;;;;78.67;58.67;;;;;;;;5065706;28;9820;-83
2022/01/26 09:59:08;;;;;;;;;79.33;61.00;;;;;;;;5061018;28;8868;-83
2022/01/26 10:01:43;;;;;;;;;73.33;57.67;;;;;;;;5062176;28;8809;-83
2022/01/26 10:04:20;;;;;;;;;69.00;53.67;;;;;;;;5062691;28;8885;-82
2022/01/26 10:06:59;;;;;;;;;70.67;56.67;;;;;;;;5061738;28;8993;-81
2022/01/26 10:15:28;;;;;;;;;59.67;50.00;;;;;;;;5049711;28;8969;-81
2022/01/26 10:18:03;;;;;;;;;72.00;55.67;;;;;;;;5061203;28;8980;-85
2022/01/26 10:20:40;;;;;;;;;66.67;54.33;;;;;;;;5061398;28;8850;-84
2022/01/26 10:23:08;;;;;;;;;72.33;57.00;;;;;;;;5065156;28;8856;-84
2022/01/26 10:25:36;;;;;;;;;63.67;53.00;;;;;;;;5058321;28;8869;-85
2022/01/26 10:28:05;;;;;;;;;62.00;49.33;;;;;;;;5063594;28;11590;-83
2022/01/26 10:30:34;;;;;;;;;64.67;47.00;;;;;;;;5063908;28;11496;-84
2022/01/26 10:33:08;;;;;;;;;63.00;48.00;;;;;;;;5063383;28;8928;-81
2022/01/26 10:35:36;;;;;;;;;67.67;55.33;;;;;;;;5057633;28;9158;-83
2022/01/26 10:38:03;;;;;;;;;64.67;52.00;;;;;;;;5053448;28;8868;-83
2022/01/26 10:40:31;;;;;;;;;61.00;50.67;;;;;;;;5064625;28;8875;-83
2022/01/26 10:43:03;;;;;;;;;70.33;57.33;;;;;;;;5062414;28;8884;-83
2022/01/26 10:45:38;;;;;;;;;56.33;47.00;;;;;;;;5064205;28;12409;-84
2022/01/26 10:48:17;;;;;;;;;64.00;53.00;;;;;;;;5063011;28;11567;-84
2022/01/26 10:51:08;;;;;;;;;77.33;58.00;;;;;;;;5059545;28;11732;-81
2022/01/26 10:53:40;;;;;;;;;69.00;59.00;;;;;;;;5059970;28;8874;-84
2022/01/26 10:56:07;;;;;;;;;67.00;53.33;;;;;;;;5052801;28;8889;-84
2022/01/26 10:58:35;;;;;;;;;64.33;50.67;;;;;;;;5061851;28;8879;-84
2022/01/26 11:01:05;;;;;;;;;73.00;60.00;;;;;;;;5045679;28;11518;-84
2022/01/26 11:03:33;;;;;;;;;70.33;54.00;;;;;;;;5065640;28;8975;-84
2022/01/26 11:06:01;;;;;;;;;66.67;55.00;;;;;;;;5058081;28;8996;-84
2022/01/26 11:08:29;;;;;;;;;75.67;59.33;;;;;;;;5063662;28;8874;-84
2022/01/26 11:10:57;;;;;;;;;64.00;53.00;;;;;;;;5058682;28;9619;-84
2022/01/26 11:13:26;;;;;;;;;70.00;57.67;;;;;;;;5064459;28;8876;-84
2022/01/26 11:15:54;;;;;;;;;68.33;54.33;;;;;;;;5067988;28;8876;-83
2022/01/26 11:18:29;;;;;;;;;72.00;56.00;;;;;;;;5067314;28;11622;-83
2022/01/26 11:20:56;;;;;;;;;62.33;49.00;;;;;;;;5064718;28;11585;-80
2022/01/26 11:23:40;;;;;;;;;65.33;53.00;;;;;;;;5063588;28;11620;-82
2022/01/26 11:26:07;;;;;;;;;73.00;56.67;;;;;;;;5064229;28;11602;-82
2022/01/26 11:28:34;;;;;;;;;68.33;55.33;;;;;;;;5065212;28;11606;-85
2022/01/26 11:31:05;;;;;;;;;77.33;57.00;;;;;;;;5065046;28;11644;-85
2022/01/26 11:33:36;;;;;;;;;74.67;59.33;;;;;;;;5066632;28;8858;-84
2022/01/26 11:36:04;;;;;;;;;67.33;55.67;;;;;;;;5066908;28;11556;-81
2022/01/26 11:39:13;;;;;;;;;68.67;56.00;;;;;;;;5065682;28;8874;-78
2022/01/26 11:47:02;;;;;;;;;71.33;56.67;;;;;;;;5063303;28;8855;-83
2022/01/26 11:49:36;;;;;;;;;66.00;48.33;;;;;;;;5065978;28;8870;-82
2022/01/26 11:52:05;;;;;;;;;66.67;54.00;;;;;;;;5064720;28;9632;-78
2022/01/26 11:54:43;;;;;;;;;78.00;61.33;;;;;;;;5063502;28;11733;-81
2022/01/26 11:57:14;;;;;;;;;72.00;58.00;;;;;;;;5062918;28;8889;-82
2022/01/26 11:59:47;;;;;;;;;73.67;58.33;;;;;;;;5059844;28;8858;-82
2022/01/26 12:02:28;;;;;;;;;69.33;59.00;;;;;;;;5060889;28;8823;-81
2022/01/26 12:05:02;;;;;;;;;72.33;59.33;;;;;;;;5058388;28;8938;-78
2022/01/26 12:07:30;;;;;;;;;71.00;58.33;;;;;;;;5064280;28;11769;-83
2022/01/26 12:09:57;;;;;;;;;67.00;54.00;;;;;;;;5063251;28;8887;-85
2022/01/26 12:12:25;;;;;;;;;68.67;55.33;;;;;;;;5062875;28;11701;-81
2022/01/26 12:15:04;;;;;;;;;67.00;51.33;;;;;;;;5064638;28;8839;-84
2022/01/26 12:17:36;;;;;;;;;71.67;56.33;;;;;;;;5059936;28;11638;-84
2022/01/26 12:32:01;;;;;;;;;78.67;58.67;;;;;;;;5059242;28;8877;-84
2022/01/26 12:36:56;;;;;;;;;66.67;53.00;;;;;;;;5061830;28;11568;-85
2022/01/26 12:42:11;;;;;;;;;69.33;54.00;;;;;;;;5063159;28;11608;-79
2022/01/26 12:44:39;;;;;;;;;64.33;54.00;;;;;;;;5062497;28;11663;-79
2022/01/26 12:47:07;;;;;;;;;70.00;53.67;;;;;;;;5062582;28;11728;-80
2022/01/26 12:49:34;;;;;;;;;62.00;48.00;;;;;;;;5062466;28;11607;-83
2022/01/26 12:52:04;;;;;;;;;70.67;53.67;;;;;;;;5059915;28;11582;-79
2022/01/26 12:54:32;;;;;;;;;60.33;49.33;;;;;;;;5061213;28;11590;-81
2022/01/26 12:57:06;;;;;;;;;69.00;56.33;;;;;;;;5059933;28;11608;-79
2022/01/26 12:59:33;;;;;;;;;65.67;51.67;;;;;;;;5060177;28;11637;-82
2022/01/26 13:02:01;;;;;;;;;72.33;58.00;;;;;;;;5061867;28;11557;-79
2022/01/26 13:04:28;;;;;;;;;80.00;60.33;;;;;;;;5059698;28;11756;-81
2022/01/26 13:06:55;;;;;;;;;71.67;56.33;;;;;;;;5062499;28;12489;-76
2022/01/26 13:09:26;;;;;;;;;73.67;57.33;;;;;;;;5058018;28;11773;-79
2022/01/26 13:11:55;;;;;;;;;73.33;59.67;;;;;;;;5062073;28;11606;-81
2022/01/26 13:14:26;;;;;;;;;75.00;60.00;;;;;;;;5060816;28;11616;-84
2022/01/26 13:17:06;;;;;;;;;78.00;59.67;;;;;;;;5059491;28;11602;-83
2022/01/26 13:19:42;;;;;;;;;76.67;59.00;;;;;;;;5059487;28;11747;-82
2022/01/26 13:22:37;;;;;;;;;86.33;62.33;;;;;;;;5060405;28;9271;-81
2022/01/26 13:25:30;;;;;;;;;71.00;56.33;;;;;;;;5059767;28;8843;-82
2022/01/26 13:36:28;;;;;;;;;82.67;64.67;;;;;;;;5047090;28;8951;-79
2022/01/26 13:39:10;;;;;;;;;74.00;60.00;;;;;;;;5059850;28;8985;-78
2022/01/26 13:41:45;;;;;;;;;77.00;61.67;;;;;;;;5055163;28;8871;-83
2022/01/26 13:50:14;;;;;;;;;77.67;61.33;;;;;;;;4995163;28;8906;-78
2022/01/26 13:52:49;;;;;;;;;73.33;56.00;;;;;;;;4982755;28;8942;-76
2022/01/26 13:55:33;;;;;;;;;75.67;60.67;;;;;;;;5027304;28;10148;-78
2022/01/26 13:58:22;;;;;;;;;86.67;61.00;;;;;;;;5059299;28;8924;-82
2022/01/26 14:00:57;;;;;;;;;75.00;61.33;;;;;;;;5059808;28;8956;-82
2022/01/26 14:03:28;;;;;;;;;80.00;63.00;;;;;;;;5061931;28;8880;-78
2022/01/26 14:05:55;;;;;;;;;79.00;61.00;;;;;;;;5061609;28;8985;-82
2022/01/26 14:08:23;;;;;;;;;86.00;66.67;;;;;;;;5062181;28;8882;-80
2022/01/26 14:10:50;;;;;;;;;85.33;64.67;;;;;;;;5060163;28;8874;-78
2022/01/26 14:13:22;;;;;;;;;76.67;62.33;;;;;;;;5062904;28;8950;-76
2022/01/26 14:15:52;;;;;;;;;82.00;59.33;;;;;;;;5058552;28;10025;-81
2022/01/26 14:21:23;;;;;;;;;83.33;65.67;;;;;;;;5057255;28;8846;-80
2022/01/26 14:26:44;;;;;;;;;77.33;60.67;;;;;;;;5041545;28;8881;-81
2022/01/26 14:29:22;;;;;;;;;82.67;61.00;;;;;;;;5060761;28;8863;-82
2022/01/26 14:51:17;;;;;;;;;72.67;57.67;;;;;;;;5062723;28;8862;-82
2022/01/26 15:30:17;;;;;;;;;79.67;61.00;;;;;;;;5064877;28;8870;-76
2022/01/26 15:41:20;;;;;;;;;79.33;62.33;;;;;;;;5063679;28;8855;-82
2022/01/26 15:44:05;;;;;;;;;79.00;63.00;;;;;;;;5062521;28;8847;-76
2022/01/26 15:52:32;;;;;;;;;70.67;55.67;;;;;;;;5064663;28;12392;-77
2022/01/26 16:20:05;;;;;;;;;58.00;45.25;;;;;;;;5063025;28;11696;-83
2022/01/26 16:37:33;;;;;;;;;71.33;54.33;;;;;;;;5061941;28;11588;-80
2022/01/26 17:02:33;;;;;;;;;62.75;51.75;;;;;;;;5056071;28;11541;-77
2022/01/26 17:46:53;;;;;;;;;57.25;47.25;;;;;;;;5061201;28;11608;-75
2022/01/26 18:17:29;;;;;;;;;44.00;40.50;;;;;;;;5060103;28;11720;-75
2022/01/26 18:39:45;;;;;;;;;60.50;48.50;;;;;;;;5058327;28;11557;-75
2022/01/26 18:50:26;;;;;;;;;56.50;44.50;;;;;;;;5057261;28;11571;-76
2022/01/26 18:52:54;;;;;;;;;56.50;45.75;;;;;;;;5059750;28;11617;-76
2022/01/26 18:55:23;;;;;;;;;66.25;49.25;;;;;;;;5054357;28;11742;-76
2022/01/26 18:57:51;;;;;;;;;52.75;44.50;;;;;;;;5058215;28;11558;-81
2022/01/26 19:00:19;;;;;;;;;59.00;49.25;;;;;;;;5050770;28;11666;-77
2022/01/26 19:02:46;;;;;;;;;71.00;53.00;;;;;;;;5042793;28;11622;-77
2022/01/26 19:05:14;;;;;;;;;63.50;50.00;;;;;;;;5049797;28;11636;-77
2022/01/26 19:07:41;;;;;;;;;59.00;46.00;;;;;;;;5058102;28;11588;-76
2022/01/26 19:10:10;;;;;;;;;61.25;50.50;;;;;;;;5060487;28;11568;-76
2022/01/26 19:12:41;;;;;;;;;44.25;37.75;;;;;;;;5057895;28;11732;-76
2022/01/26 19:15:13;;;;;;;;;63.75;48.00;;;;;;;;5058433;28;12565;-78
2022/01/26 19:17:46;;;;;;;;;59.00;44.25;;;;;;;;5056900;28;11753;-77
2022/01/26 19:20:28;;;;;;;;;43.75;36.25;;;;;;;;5057096;28;12377;-78
2022/01/26 19:23:08;;;;;;;;;55.00;46.50;;;;;;;;5056884;28;11681;-79
2022/01/26 19:25:40;;;;;;;;;63.50;49.75;;;;;;;;5054773;28;11555;-77
2022/01/26 19:28:15;;;;;;;;;50.50;44.75;;;;;;;;5061138;28;11594;-77
2022/01/26 19:44:45;;;;;;;;;49.75;43.75;;;;;;;;5062131;28;11517;-78
2022/01/26 19:50:39;;;;;;;;;59.75;45.25;;;;;;;;5061903;28;11701;-78
2022/01/26 19:52:50;;;;;;;;;59.50;47.25;;;;;;;;5063017;28;11659;-77
2022/01/26 19:55:18;;;;;;;;;42.75;34.50;;;;;;;;5060949;28;11635;-77
2022/01/26 19:57:45;;;;;;;;;56.75;42.25;;;;;;;;5060649;28;11688;-77
2022/01/26 20:00:16;;;;;;;;;40.50;36.00;;;;;;;;5061846;28;11623;-77
2022/01/26 20:02:43;;;;;;;;;48.75;44.25;;;;;;;;5062111;28;11598;-77
2022/01/26 20:05:14;;;;;;;;;51.50;44.00;;;;;;;;5062839;28;11740;-78
2022/01/26 20:07:42;;;;;;;;;58.75;45.50;;;;;;;;5059113;28;11596;-78
2022/01/26 20:10:13;;;;;;;;;56.75;44.25;;;;;;;;5059480;28;12428;-77
2022/01/26 20:12:45;;;;;;;;;49.75;41.25;;;;;;;;5061053;28;11617;-78
2022/01/26 20:15:14;;;;;;;;;50.25;41.75;;;;;;;;5095242;28;11555;-77
2022/01/26 20:17:43;;;;;;;;;57.00;44.75;;;;;;;;5063191;28;11585;-77
2022/01/26 20:20:15;;;;;;;;;61.75;48.75;;;;;;;;5064116;28;12436;-77
2022/01/26 20:22:42;;;;;;;;;45.50;39.25;;;;;;;;5062047;28;11624;-77
2022/01/26 20:25:12;;;;;;;;;57.25;45.25;;;;;;;;5063480;28;12339;-77
2022/01/26 20:27:39;;;;;;;;;44.25;39.25;;;;;;;;5063747;28;11686;-77
2022/01/26 20:30:15;;;;;;;;;53.25;41.00;;;;;;;;5058661;28;11596;-77
2022/01/26 20:32:49;;;;;;;;;44.00;40.75;;;;;;;;5061691;28;11712;-77
2022/01/26 20:35:17;;;;;;;;;44.50;35.25;;;;;;;;5060776;28;11612;-77
2022/01/26 20:37:45;;;;;;;;;46.75;43.50;;;;;;;;5063516;28;11581;-76
2022/01/26 20:40:15;;;;;;;;;56.50;44.00;;;;;;;;5061409;28;11602;-76
2022/01/26 20:42:42;;;;;;;;;52.25;42.25;;;;;;;;5063739;28;11610;-76
2022/01/26 20:45:10;;;;;;;;;58.75;42.50;;;;;;;;5061999;28;12667;-76
2022/01/26 20:47:38;;;;;;;;;57.75;39.00;;;;;;;;5053564;28;11651;-76
2022/01/26 20:50:08;;;;;;;;;47.25;41.25;;;;;;;;5061108;28;11605;-77
2022/01/26 20:52:37;;;;;;;;;63.25;47.00;;;;;;;;5060418;28;11628;-77
2022/01/26 20:55:07;;;;;;;;;52.00;41.50;;;;;;;;5061637;28;11728;-77
2022/01/26 20:57:34;;;;;;;;;49.50;43.25;;;;;;;;5060657;28;11642;-77
2022/01/26 21:00:02;;;;;;;;;58.50;43.50;;;;;;;;5063452;28;11735;-77
2022/01/26 21:02:30;;;;;;;;;48.75;44.50;;;;;;;;5060193;28;11743;-77
2022/01/26 21:04:57;;;;;;;;;48.50;41.00;;;;;;;;5060674;28;12812;-77